sensor_id;sensor_type;location;lat;lon;timestamp;pressure;altitude;pressure_sealevel;temperature;humidity
46430;BME280;32131;53.454;-6.180;2022-07-23T00:00:58;101617.81;;;17.85;66.54
46430;BME280;32131;53.454;-6.180;2022-07-23T00:03:26;101618.69;;;17.86;66.67
46430;BME280;32131;53.454;-6.180;2022-07-23T00:05:54;101617.81;;;17.85;66.79
46430;BME280;32131;53.454;-6.180;2022-07-23T00:08:25;101618.69;;;17.86;66.83
46430;BME280;32131;53.454;-6.180;2022-07-23T00:11:11;101612.59;;;17.87;66.76
46430;BME280;32131;53.454;-6.180;2022-07-23T00:13:39;101618.69;;;17.90;66.66
46430;BME280;32131;53.454;-6.180;2022-07-23T00:16:07;101603.00;;;17.92;66.67
46430;BME280;32131;53.454;-6.180;2022-07-23T00:18:36;101603.00;;;17.92;66.66
46430;BME280;32131;53.454;-6.180;2022-07-23T00:21:04;101606.50;;;17.89;66.93
46430;BME280;32131;53.454;-6.180;2022-07-23T00:23:35;101595.16;;;17.87;66.98
46430;BME280;32131;53.454;-6.180;2022-07-23T00:26:04;101602.16;;;17.87;67.03
46430;BME280;32131;53.454;-6.180;2022-07-23T00:28:37;101599.53;;;17.87;66.85
46430;BME280;32131;53.454;-6.180;2022-07-23T00:31:08;101599.50;;;17.85;67.11
46430;BME280;32131;53.454;-6.180;2022-07-23T00:33:36;101589.97;;;17.81;67.29
46430;BME280;32131;53.454;-6.180;2022-07-23T00:36:08;101594.28;;;17.81;67.20
46430;BME280;32131;53.454;-6.180;2022-07-23T00:38:36;101589.97;;;17.81;67.34
46430;BME280;32131;53.454;-6.180;2022-07-23T00:41:05;101590.84;;;17.79;67.67
46430;BME280;32131;53.454;-6.180;2022-07-23T00:43:34;101597.78;;;17.76;67.66
46430;BME280;32131;53.454;-6.180;2022-07-23T00:46:04;101588.22;;;17.74;67.68
46430;BME280;32131;53.454;-6.180;2022-07-23T00:48:32;101597.78;;;17.76;67.80
46430;BME280;32131;53.454;-6.180;2022-07-23T00:51:00;101581.25;;;17.76;67.94
46430;BME280;32131;53.454;-6.180;2022-07-23T00:53:31;101582.97;;;17.77;67.79
46430;BME280;32131;53.454;-6.180;2022-07-23T00:55:59;101575.16;;;17.80;67.83
46430;BME280;32131;53.454;-6.180;2022-07-23T00:58:27;101582.13;;;17.81;67.82
46430;BME280;32131;53.454;-6.180;2022-07-23T01:00:56;101575.16;;;17.82;67.78
46430;BME280;32131;53.454;-6.180;2022-07-23T01:03:27;101576.88;;;17.84;67.84
46430;BME280;32131;53.454;-6.180;2022-07-23T01:05:57;101575.16;;;17.89;67.55
46430;BME280;32131;53.454;-6.180;2022-07-23T01:08:25;101569.94;;;17.88;67.89
46430;BME280;32131;53.454;-6.180;2022-07-23T01:10:53;101571.66;;;17.86;68.01
46430;BME280;32131;53.454;-6.180;2022-07-23T01:13:24;101574.25;;;17.84;68.04
46430;BME280;32131;53.454;-6.180;2022-07-23T01:15:54;101569.94;;;17.83;68.33
46430;BME280;32131;53.454;-6.180;2022-07-23T01:18:22;101559.47;;;17.82;68.53
46430;BME280;32131;53.454;-6.180;2022-07-23T01:20:52;101567.31;;;17.80;68.57
46430;BME280;32131;53.454;-6.180;2022-07-23T01:23:22;101562.97;;;17.82;68.62
46430;BME280;32131;53.454;-6.180;2022-07-23T01:25:52;101558.63;;;17.81;68.60
46430;BME280;32131;53.454;-6.180;2022-07-23T01:28:20;101552.50;;;17.85;68.42
46430;BME280;32131;53.454;-6.180;2022-07-23T01:30:48;101543.81;;;17.88;68.47
46430;BME280;32131;53.454;-6.180;2022-07-23T01:33:20;101542.03;;;17.93;68.14
46430;BME280;32131;53.454;-6.180;2022-07-23T01:35:48;101545.53;;;17.95;68.09
46430;BME280;32131;53.454;-6.180;2022-07-23T01:38:18;101545.56;;;18.00;67.75
46430;BME280;32131;53.454;-6.180;2022-07-23T01:40:48;101544.66;;;18.04;67.55
46430;BME280;32131;53.454;-6.180;2022-07-23T01:43:20;101544.66;;;18.07;67.35
46430;BME280;32131;53.454;-6.180;2022-07-23T01:45:52;101541.19;;;18.08;67.17
46430;BME280;32131;53.454;-6.180;2022-07-23T01:48:20;101543.78;;;18.08;67.23
46430;BME280;32131;53.454;-6.180;2022-07-23T01:50:49;101537.66;;;18.09;67.20
46430;BME280;32131;53.454;-6.180;2022-07-23T01:53:17;101528.09;;;18.10;67.00
46430;BME280;32131;53.454;-6.180;2022-07-23T01:55:45;101522.88;;;18.10;67.19
46430;BME280;32131;53.454;-6.180;2022-07-23T01:58:15;101519.41;;;18.06;67.38
46430;BME280;32131;53.454;-6.180;2022-07-23T02:00:43;101521.13;;;18.05;67.57
46430;BME280;32131;53.454;-6.180;2022-07-23T02:03:13;101515.03;;;18.02;67.68
46430;BME280;32131;53.454;-6.180;2022-07-23T02:05:45;101515.06;;;17.99;68.09
46430;BME280;32131;53.454;-6.180;2022-07-23T02:08:14;101501.09;;;17.94;68.43
46430;BME280;32131;53.454;-6.180;2022-07-23T02:10:42;101504.59;;;17.91;68.53
46430;BME280;32131;53.454;-6.180;2022-07-23T02:13:12;101504.59;;;17.86;68.75
46430;BME280;32131;53.454;-6.180;2022-07-23T02:15:46;101508.97;;;17.87;68.69
46430;BME280;32131;53.454;-6.180;2022-07-23T02:18:19;101502.88;;;17.88;68.93
46430;BME280;32131;53.454;-6.180;2022-07-23T02:20:47;101505.50;;;17.87;69.14
46430;BME280;32131;53.454;-6.180;2022-07-23T02:23:15;101498.53;;;17.83;69.40
46430;BME280;32131;53.454;-6.180;2022-07-23T02:25:44;101502.91;;;17.78;69.89
46430;BME280;32131;53.454;-6.180;2022-07-23T02:28:12;101507.25;;;17.71;70.33
46430;BME280;32131;53.454;-6.180;2022-07-23T02:30:41;101492.47;;;17.65;70.72
46430;BME280;32131;53.454;-6.180;2022-07-23T02:33:11;101482.03;;;17.60;71.13
46430;BME280;32131;53.454;-6.180;2022-07-23T02:35:39;101482.06;;;17.57;71.46
46430;BME280;32131;53.454;-6.180;2022-07-23T02:38:08;101475.97;;;17.54;71.67
46430;BME280;32131;53.454;-6.180;2022-07-23T02:40:36;101485.56;;;17.47;72.24
46430;BME280;32131;53.454;-6.180;2022-07-23T02:43:06;101482.06;;;17.45;72.26
46430;BME280;32131;53.454;-6.180;2022-07-23T02:45:34;101482.06;;;17.45;72.33
46430;BME280;32131;53.454;-6.180;2022-07-23T02:48:03;101478.56;;;17.43;72.57
46430;BME280;32131;53.454;-6.180;2022-07-23T02:50:33;101474.25;;;17.43;72.57
46430;BME280;32131;53.454;-6.180;2022-07-23T02:53:01;101474.25;;;17.40;73.10
46430;BME280;32131;53.454;-6.180;2022-07-23T02:55:29;101469.00;;;17.40;73.45
46430;BME280;32131;53.454;-6.180;2022-07-23T02:57:57;101464.69;;;17.38;74.04
46430;BME280;32131;53.454;-6.180;2022-07-23T03:00:26;101462.94;;;17.35;74.16
46430;BME280;32131;53.454;-6.180;2022-07-23T03:02:54;101463.81;;;17.33;74.76
46430;BME280;32131;53.454;-6.180;2022-07-23T03:05:33;101461.22;;;17.33;75.04
46430;BME280;32131;53.454;-6.180;2022-07-23T03:08:02;101458.59;;;17.33;75.39
46430;BME280;32131;53.454;-6.180;2022-07-23T03:10:30;101453.38;;;17.33;75.81
46430;BME280;32131;53.454;-6.180;2022-07-23T03:15:53;101461.22;;;17.33;76.71
46430;BME280;32131;53.454;-6.180;2022-07-23T03:18:23;101449.88;;;17.32;76.93
46430;BME280;32131;53.454;-6.180;2022-07-23T03:20:52;101437.72;;;17.28;78.29
46430;BME280;32131;53.454;-6.180;2022-07-23T03:23:24;101440.31;;;17.26;78.80
46430;BME280;32131;53.454;-6.180;2022-07-23T03:25:52;101435.13;;;17.23;79.74
46430;BME280;32131;53.454;-6.180;2022-07-23T03:28:21;101435.13;;;17.23;79.95
46430;BME280;32131;53.454;-6.180;2022-07-23T03:30:49;101434.25;;;17.24;80.40
46430;BME280;32131;53.454;-6.180;2022-07-23T03:33:19;101431.66;;;17.24;80.66
46430;BME280;32131;53.454;-6.180;2022-07-23T03:35:47;101422.91;;;17.25;80.47
46430;BME280;32131;53.454;-6.180;2022-07-23T03:38:18;101422.91;;;17.25;81.20
46430;BME280;32131;53.454;-6.180;2022-07-23T03:40:46;101416.84;;;17.25;81.02
46430;BME280;32131;53.454;-6.180;2022-07-23T03:43:17;101407.25;;;17.25;81.36
46430;BME280;32131;53.454;-6.180;2022-07-23T03:45:49;101411.63;;;17.26;81.45
46430;BME280;32131;53.454;-6.180;2022-07-23T03:48:17;101403.78;;;17.26;81.35
46430;BME280;32131;53.454;-6.180;2022-07-23T03:50:45;101407.28;;;17.27;81.47
46430;BME280;32131;53.454;-6.180;2022-07-23T03:53:13;101388.13;;;17.26;81.61
46430;BME280;32131;53.454;-6.180;2022-07-23T03:55:42;101383.78;;;17.27;81.62
46430;BME280;32131;53.454;-6.180;2022-07-23T03:58:12;101386.41;;;17.27;81.72
46430;BME280;32131;53.454;-6.180;2022-07-23T04:00:40;101378.56;;;17.27;81.81
46430;BME280;32131;53.454;-6.180;2022-07-23T04:03:09;101385.53;;;17.26;82.27
46430;BME280;32131;53.454;-6.180;2022-07-23T04:05:37;101385.53;;;17.26;82.53
46430;BME280;32131;53.454;-6.180;2022-07-23T04:08:05;101376.84;;;17.24;82.78
46430;BME280;32131;53.454;-6.180;2022-07-23T04:10:33;101379.44;;;17.21;83.59
46430;BME280;32131;53.454;-6.180;2022-07-23T04:13:04;101377.72;;;17.20;83.74
46430;BME280;32131;53.454;-6.180;2022-07-23T04:15:33;101372.50;;;17.19;84.79
46430;BME280;32131;53.454;-6.180;2022-07-23T04:18:01;101363.81;;;17.15;85.31
46430;BME280;32131;53.454;-6.180;2022-07-23T04:20:29;101361.22;;;17.15;85.39
46430;BME280;32131;53.454;-6.180;2022-07-23T04:23:02;101362.06;;;17.14;86.08
46430;BME280;32131;53.454;-6.180;2022-07-23T04:25:31;101362.94;;;17.15;86.06
46430;BME280;32131;53.454;-6.180;2022-07-23T04:27:59;101355.09;;;17.15;86.09
46430;BME280;32131;53.454;-6.180;2022-07-23T04:30:29;101355.09;;;17.15;86.36
46430;BME280;32131;53.454;-6.180;2022-07-23T04:32:58;101353.38;;;17.15;86.48
46430;BME280;32131;53.454;-6.180;2022-07-23T04:35:26;101365.53;;;17.18;86.74
46430;BME280;32131;53.454;-6.180;2022-07-23T04:37:55;101357.72;;;17.18;86.56
46430;BME280;32131;53.454;-6.180;2022-07-23T04:40:23;101355.97;;;17.21;86.35
46430;BME280;32131;53.454;-6.180;2022-07-23T04:42:51;101351.63;;;17.23;86.06
46430;BME280;32131;53.454;-6.180;2022-07-23T04:45:22;101350.75;;;17.24;86.10
46430;BME280;32131;53.454;-6.180;2022-07-23T04:48:02;101347.25;;;17.25;86.24
46430;BME280;32131;53.454;-6.180;2022-07-23T04:50:31;101346.41;;;17.23;86.52
46430;BME280;32131;53.454;-6.180;2022-07-23T04:52:58;101337.72;;;17.24;86.45
46430;BME280;32131;53.454;-6.180;2022-07-23T04:55:26;101342.03;;;17.25;86.13
46430;BME280;32131;53.454;-6.180;2022-07-23T04:57:55;101341.16;;;17.28;86.12
46430;BME280;32131;53.454;-6.180;2022-07-23T05:00:23;101347.22;;;17.30;86.12
46430;BME280;32131;53.454;-6.180;2022-07-23T05:02:51;101348.13;;;17.27;86.73
46430;BME280;32131;53.454;-6.180;2022-07-23T05:05:23;101349.84;;;17.25;86.96
46430;BME280;32131;53.454;-6.180;2022-07-23T05:07:51;101351.59;;;17.26;87.36
46430;BME280;32131;53.454;-6.180;2022-07-23T05:10:19;101348.13;;;17.27;87.48
46430;BME280;32131;53.454;-6.180;2022-07-23T05:12:47;101349.84;;;17.25;88.03
46430;BME280;32131;53.454;-6.180;2022-07-23T05:15:15;101349.88;;;17.22;88.80
46430;BME280;32131;53.454;-6.180;2022-07-23T05:17:43;101351.63;;;17.20;89.41
46430;BME280;32131;53.454;-6.180;2022-07-23T05:20:11;101349.88;;;17.19;89.55
46430;BME280;32131;53.454;-6.180;2022-07-23T05:22:42;101345.53;;;17.21;89.54
46430;BME280;32131;53.454;-6.180;2022-07-23T05:25:12;101342.94;;;17.24;89.50
46430;BME280;32131;53.454;-6.180;2022-07-23T05:27:40;101341.16;;;17.26;89.22
46430;BME280;32131;53.454;-6.180;2022-07-23T05:30:09;101342.91;;;17.26;89.44
46430;BME280;32131;53.454;-6.180;2022-07-23T05:32:41;101341.16;;;17.26;89.70
46430;BME280;32131;53.454;-6.180;2022-07-23T05:35:13;101341.16;;;17.26;89.70
46430;BME280;32131;53.454;-6.180;2022-07-23T05:37:46;101335.06;;;17.27;90.16
46430;BME280;32131;53.454;-6.180;2022-07-23T05:40:14;101324.66;;;17.26;90.59
46430;BME280;32131;53.454;-6.180;2022-07-23T05:42:42;101333.34;;;17.25;90.68
46430;BME280;32131;53.454;-6.180;2022-07-23T05:45:11;101334.22;;;17.24;91.00
46430;BME280;32131;53.454;-6.180;2022-07-23T05:47:40;101331.59;;;17.24;91.22
46430;BME280;32131;53.454;-6.180;2022-07-23T05:53:47;101312.44;;;17.26;91.38
46430;BME280;32131;53.454;-6.180;2022-07-23T05:56:29;101311.63;;;17.24;92.04
46430;BME280;32131;53.454;-6.180;2022-07-23T05:58:57;101314.22;;;17.26;92.11
46430;BME280;32131;53.454;-6.180;2022-07-23T06:01:33;101317.66;;;17.29;92.68
46430;BME280;32131;53.454;-6.180;2022-07-23T06:04:19;101316.78;;;17.37;92.62
46430;BME280;32131;53.454;-6.180;2022-07-23T06:13:19;101316.78;;;17.34;93.57
46430;BME280;32131;53.454;-6.180;2022-07-23T06:16:01;101305.50;;;17.28;94.04
46430;BME280;32131;53.454;-6.180;2022-07-23T06:18:36;101299.41;;;17.29;94.13
46430;BME280;32131;53.454;-6.180;2022-07-23T06:21:18;101297.66;;;17.32;94.25
46430;BME280;32131;53.454;-6.180;2022-07-23T06:24:11;101300.25;;;17.36;94.39
46430;BME280;32131;53.454;-6.180;2022-07-23T06:27:06;101292.41;;;17.38;94.47
46430;BME280;32131;53.454;-6.180;2022-07-23T06:33:22;101282.84;;;17.37;94.58
46430;BME280;32131;53.454;-6.180;2022-07-23T06:36:27;101288.06;;;17.35;94.87
46430;BME280;32131;53.454;-6.180;2022-07-23T06:49:16;101291.56;;;17.34;96.76
46430;BME280;32131;53.454;-6.180;2022-07-23T06:51:57;101294.13;;;17.42;96.43
46430;BME280;32131;53.454;-6.180;2022-07-23T06:57:43;101284.50;;;17.50;95.88
46430;BME280;32131;53.454;-6.180;2022-07-23T07:03:28;101273.19;;;17.51;95.89
46430;BME280;32131;53.454;-6.180;2022-07-23T07:06:26;101267.94;;;17.59;95.69
46430;BME280;32131;53.454;-6.180;2022-07-23T07:09:13;101270.47;;;17.78;95.07
46430;BME280;32131;53.454;-6.180;2022-07-23T07:15:34;101264.34;;;17.80;94.45
46430;BME280;32131;53.454;-6.180;2022-07-23T07:18:08;101258.31;;;17.70;94.99
46430;BME280;32131;53.454;-6.180;2022-07-23T07:20:39;101259.22;;;17.63;95.40
46430;BME280;32131;53.454;-6.180;2022-07-23T07:23:17;101258.41;;;17.56;95.99
46430;BME280;32131;53.454;-6.180;2022-07-23T07:25:59;101258.38;;;17.58;96.00
46430;BME280;32131;53.454;-6.180;2022-07-23T07:28:44;101255.75;;;17.63;95.89
46430;BME280;32131;53.454;-6.180;2022-07-23T07:31:18;101254.84;;;17.68;95.81
46430;BME280;32131;53.454;-6.180;2022-07-23T07:33:49;101241.75;;;17.74;95.55
46430;BME280;32131;53.454;-6.180;2022-07-23T07:36:30;101236.44;;;17.85;95.08
46430;BME280;32131;53.454;-6.180;2022-07-23T07:39:02;101232.94;;;17.96;94.73
46430;BME280;32131;53.454;-6.180;2022-07-23T07:41:45;101232.06;;;17.97;94.63
46430;BME280;32131;53.454;-6.180;2022-07-23T07:44:13;101224.22;;;18.00;94.63
46430;BME280;32131;53.454;-6.180;2022-07-23T07:46:44;101225.91;;;18.04;94.44
46430;BME280;32131;53.454;-6.180;2022-07-23T07:49:12;101228.50;;;18.05;94.36
46430;BME280;32131;53.454;-6.180;2022-07-23T07:51:47;101227.63;;;18.05;94.44
46430;BME280;32131;53.454;-6.180;2022-07-23T07:54:24;101231.06;;;18.13;94.17
46430;BME280;32131;53.454;-6.180;2022-07-23T07:56:55;101230.09;;;18.23;93.80
46430;BME280;32131;53.454;-6.180;2022-07-23T07:59:23;101219.50;;;18.42;93.29
46430;BME280;32131;53.454;-6.180;2022-07-23T08:01:58;101212.47;;;18.44;92.94
46430;BME280;32131;53.454;-6.180;2022-07-23T08:04:26;101209.06;;;18.36;93.07
46430;BME280;32131;53.454;-6.180;2022-07-23T08:06:54;101206.50;;;18.33;93.17
46430;BME280;32131;53.454;-6.180;2022-07-23T08:09:26;101212.56;;;18.36;93.17
46430;BME280;32131;53.454;-6.180;2022-07-23T08:11:57;101201.94;;;18.52;92.43
46430;BME280;32131;53.454;-6.180;2022-07-23T08:14:26;101204.28;;;18.78;91.43
46430;BME280;32131;53.454;-6.180;2022-07-23T08:16:54;101202.44;;;18.86;90.83
46430;BME280;32131;53.454;-6.180;2022-07-23T08:19:39;101188.53;;;18.84;90.94
46430;BME280;32131;53.454;-6.180;2022-07-23T08:22:07;101182.34;;;18.90;90.74
46430;BME280;32131;53.454;-6.180;2022-07-23T08:24:37;101179.56;;;19.07;90.14
46430;BME280;32131;53.454;-6.180;2022-07-23T08:27:07;101180.13;;;19.28;89.30
46430;BME280;32131;53.454;-6.180;2022-07-23T08:29:35;101183.28;;;19.53;88.10
46430;BME280;32131;53.454;-6.180;2022-07-23T08:32:04;101176.88;;;19.71;87.21
46430;BME280;32131;53.454;-6.180;2022-07-23T08:34:52;101170.84;;;19.68;86.95
46430;BME280;32131;53.454;-6.180;2022-07-23T08:37:20;101171.88;;;19.56;87.40
46430;BME280;32131;53.454;-6.180;2022-07-23T08:39:50;101165.03;;;19.48;87.61
46430;BME280;32131;53.454;-6.180;2022-07-23T08:42:18;101166.88;;;19.40;88.20
46430;BME280;32131;53.454;-6.180;2022-07-23T08:44:46;101168.78;;;19.29;88.94
46430;BME280;32131;53.454;-6.180;2022-07-23T08:47:14;101163.53;;;19.30;88.85
46430;BME280;32131;53.454;-6.180;2022-07-23T08:49:43;101156.63;;;19.25;89.40
46430;BME280;32131;53.454;-6.180;2022-07-23T08:52:11;101161.00;;;19.26;89.43
46430;BME280;32131;53.454;-6.180;2022-07-23T08:54:41;101156.53;;;19.31;89.24
46430;BME280;32131;53.454;-6.180;2022-07-23T08:57:10;101155.63;;;19.33;89.17
46430;BME280;32131;53.454;-6.180;2022-07-23T08:59:38;101155.50;;;19.43;88.97
46430;BME280;32131;53.454;-6.180;2022-07-23T09:02:06;101153.72;;;19.45;88.73
46430;BME280;32131;53.454;-6.180;2022-07-23T09:04:34;101144.09;;;19.45;88.66
46430;BME280;32131;53.454;-6.180;2022-07-23T09:07:02;101152.16;;;19.33;89.15
46430;BME280;32131;53.454;-6.180;2022-07-23T09:09:30;101149.56;;;19.30;89.48
46430;BME280;32131;53.454;-6.180;2022-07-23T09:12:02;101145.13;;;19.35;89.44
46430;BME280;32131;53.454;-6.180;2022-07-23T09:14:39;101139.66;;;19.52;88.77
46430;BME280;32131;53.454;-6.180;2022-07-23T09:17:09;101133.25;;;19.70;87.99
46430;BME280;32131;53.454;-6.180;2022-07-23T09:19:45;101130.56;;;19.75;87.71
46430;BME280;32131;53.454;-6.180;2022-07-23T09:22:17;101131.28;;;19.83;87.40
46430;BME280;32131;53.454;-6.180;2022-07-23T09:25:03;101133.47;;;20.11;86.28
46430;BME280;32131;53.454;-6.180;2022-07-23T09:27:45;101135.53;;;20.40;85.16
46430;BME280;32131;53.454;-6.180;2022-07-23T09:30:22;101128.03;;;20.67;84.22
46430;BME280;32131;53.454;-6.180;2022-07-23T09:33:04;101120.25;;;20.61;83.68
46430;BME280;32131;53.454;-6.180;2022-07-23T09:38:15;101117.84;;;20.05;85.19
46430;BME280;32131;53.454;-6.180;2022-07-23T09:40:44;101118.03;;;19.95;85.85
46430;BME280;32131;53.454;-6.180;2022-07-23T09:43:12;101117.13;;;19.95;86.06
46430;BME280;32131;53.454;-6.180;2022-07-23T09:48:47;101099.97;;;19.77;87.20
46430;BME280;32131;53.454;-6.180;2022-07-23T09:51:16;101094.84;;;19.69;87.43
46430;BME280;32131;53.454;-6.180;2022-07-23T09:53:47;101098.25;;;19.74;87.37
46430;BME280;32131;53.454;-6.180;2022-07-23T09:56:16;101091.13;;;19.83;87.32
46430;BME280;32131;53.454;-6.180;2022-07-23T09:58:51;101089.19;;;19.94;86.65
46430;BME280;32131;53.454;-6.180;2022-07-23T10:01:30;101088.53;;;20.31;85.70
46430;BME280;32131;53.454;-6.180;2022-07-23T10:04:00;101080.59;;;20.78;84.23
46430;BME280;32131;53.454;-6.180;2022-07-23T10:06:30;101071.25;;;21.05;82.55
46430;BME280;32131;53.454;-6.180;2022-07-23T10:08:58;101065.19;;;21.40;81.42
46430;BME280;32131;53.454;-6.180;2022-07-23T10:11:27;101071.34;;;21.75;79.92
46430;BME280;32131;53.454;-6.180;2022-07-23T10:13:59;101066.75;;;22.16;78.55
46430;BME280;32131;53.454;-6.180;2022-07-23T10:16:29;101068.47;;;22.17;77.44
46430;BME280;32131;53.454;-6.180;2022-07-23T10:18:57;101065.75;;;22.20;76.92
46430;BME280;32131;53.454;-6.180;2022-07-23T10:21:35;101054.66;;;22.09;77.09
46430;BME280;32131;53.454;-6.180;2022-07-23T10:24:09;101054.03;;;22.01;77.42
46430;BME280;32131;53.454;-6.180;2022-07-23T10:26:45;101060.59;;;21.84;77.61
46430;BME280;32131;53.454;-6.180;2022-07-23T10:29:20;101058.16;;;21.76;77.68
46430;BME280;32131;53.454;-6.180;2022-07-23T10:31:55;101061.72;;;22.07;76.96
46430;BME280;32131;53.454;-6.180;2022-07-23T10:34:34;101051.38;;;22.64;75.33
46430;BME280;32131;53.454;-6.180;2022-07-23T10:37:07;101043.34;;;22.97;74.03
46430;BME280;32131;53.454;-6.180;2022-07-23T10:39:48;101040.47;;;23.33;72.42
46430;BME280;32131;53.454;-6.180;2022-07-23T10:42:36;101044.50;;;24.21;70.22
46430;BME280;32131;53.454;-6.180;2022-07-23T10:47:49;101037.41;;;24.45;67.11
46430;BME280;32131;53.454;-6.180;2022-07-23T10:50:18;101023.75;;;24.81;66.72
46430;BME280;32131;53.454;-6.180;2022-07-23T10:55:41;101008.75;;;24.82;65.27
46430;BME280;32131;53.454;-6.180;2022-07-23T10:58:09;101015.31;;;24.25;66.63
46430;BME280;32131;53.454;-6.180;2022-07-23T11:00:38;101024.59;;;23.86;67.99
46430;BME280;32131;53.454;-6.180;2022-07-23T11:03:28;101013.91;;;23.39;69.07
46430;BME280;32131;53.454;-6.180;2022-07-23T11:06:02;101019.06;;;23.15;70.62
46430;BME280;32131;53.454;-6.180;2022-07-23T11:08:31;101008.06;;;23.02;71.33
46430;BME280;32131;53.454;-6.180;2022-07-23T11:11:10;101022.41;;;22.93;71.85
46430;BME280;32131;53.454;-6.180;2022-07-23T11:13:41;101012.34;;;22.78;72.72
46430;BME280;32131;53.454;-6.180;2022-07-23T11:16:22;101017.03;;;22.68;72.81
46430;BME280;32131;53.454;-6.180;2022-07-23T11:18:55;101010.44;;;22.83;73.01
46430;BME280;32131;53.454;-6.180;2022-07-23T11:24:11;100995.75;;;23.31;71.91
46430;BME280;32131;53.454;-6.180;2022-07-23T11:26:45;101005.00;;;23.43;71.31
46430;BME280;32131;53.454;-6.180;2022-07-23T11:32:17;100983.59;;;23.78;69.93
46430;BME280;32131;53.454;-6.180;2022-07-23T11:34:47;100991.50;;;24.03;69.31
46430;BME280;32131;53.454;-6.180;2022-07-23T11:37:26;100988.16;;;23.98;69.03
46430;BME280;32131;53.454;-6.180;2022-07-23T11:39:55;100988.28;;;24.18;69.11
46430;BME280;32131;53.454;-6.180;2022-07-23T11:42:25;100973.72;;;24.54;67.68
46430;BME280;32131;53.454;-6.180;2022-07-23T11:44:57;100969.44;;;24.52;68.02
46430;BME280;32131;53.454;-6.180;2022-07-23T11:47:26;100974.59;;;24.32;68.25
46430;BME280;32131;53.454;-6.180;2022-07-23T11:49:54;100974.09;;;24.45;68.12
46430;BME280;32131;53.454;-6.180;2022-07-23T11:52:22;100980.59;;;24.36;68.04
46430;BME280;32131;53.454;-6.180;2022-07-23T11:54:52;100960.97;;;24.43;67.47
46430;BME280;32131;53.454;-6.180;2022-07-23T11:57:26;100964.91;;;24.55;67.25
46430;BME280;32131;53.454;-6.180;2022-07-23T11:59:56;100960.44;;;24.57;67.09
46430;BME280;32131;53.454;-6.180;2022-07-23T12:02:24;100972.75;;;24.57;66.64
46430;BME280;32131;53.454;-6.180;2022-07-23T12:04:53;100954.69;;;24.46;66.39
46430;BME280;32131;53.454;-6.180;2022-07-23T12:07:26;100955.16;;;24.57;66.75
46430;BME280;32131;53.454;-6.180;2022-07-23T12:09:54;100956.53;;;24.44;66.37
46430;BME280;32131;53.454;-6.180;2022-07-23T12:12:23;100956.16;;;24.31;66.60
46430;BME280;32131;53.454;-6.180;2022-07-23T12:14:54;100962.50;;;24.03;67.38
46430;BME280;32131;53.454;-6.180;2022-07-23T12:17:27;100960.84;;;23.75;68.01
46430;BME280;32131;53.454;-6.180;2022-07-23T12:19:57;100953.22;;;23.42;68.95
46430;BME280;32131;53.454;-6.180;2022-07-23T12:22:37;100964.06;;;23.33;69.93
46430;BME280;32131;53.454;-6.180;2022-07-23T12:25:06;100960.72;;;23.01;70.12
46430;BME280;32131;53.454;-6.180;2022-07-23T12:27:35;100975.69;;;22.72;71.28
46430;BME280;32131;53.454;-6.180;2022-07-23T12:33:01;100983.75;;;22.06;73.27
46430;BME280;32131;53.454;-6.180;2022-07-23T12:35:35;100982.59;;;21.85;73.91
46430;BME280;32131;53.454;-6.180;2022-07-23T12:38:04;100985.47;;;21.75;74.79
46430;BME280;32131;53.454;-6.180;2022-07-23T12:40:33;100974.06;;;21.78;74.73
46430;BME280;32131;53.454;-6.180;2022-07-23T12:43:03;100978.47;;;22.07;73.75
46430;BME280;32131;53.454;-6.180;2022-07-23T12:45:44;100967.25;;;22.32;73.03
46430;BME280;32131;53.454;-6.180;2022-07-23T12:48:18;100966.13;;;22.41;72.65
46430;BME280;32131;53.454;-6.180;2022-07-23T12:50:55;100962.19;;;22.54;72.09
46430;BME280;32131;53.454;-6.180;2022-07-23T12:53:27;100961.25;;;22.57;71.88
46430;BME280;32131;53.454;-6.180;2022-07-23T12:56:00;100958.00;;;22.77;71.57
46430;BME280;32131;53.454;-6.180;2022-07-23T12:58:42;100954.94;;;23.16;69.74
46430;BME280;32131;53.454;-6.180;2022-07-23T13:04:06;100956.88;;;23.63;68.77
46430;BME280;32131;53.454;-6.180;2022-07-23T13:06:39;100955.53;;;23.51;68.85
46430;BME280;32131;53.454;-6.180;2022-07-23T13:09:08;100943.38;;;23.47;68.91
46430;BME280;32131;53.454;-6.180;2022-07-23T13:11:37;100941.22;;;23.59;68.46
46430;BME280;32131;53.454;-6.180;2022-07-23T13:14:05;100931.63;;;24.05;67.21
46430;BME280;32131;53.454;-6.180;2022-07-23T13:16:35;100905.38;;;24.48;65.93
46430;BME280;32131;53.454;-6.180;2022-07-23T13:19:04;100898.69;;;25.04;64.86
46430;BME280;32131;53.454;-6.180;2022-07-23T13:21:40;100894.53;;;25.40;63.72
46430;BME280;32131;53.454;-6.180;2022-07-23T13:24:10;100897.72;;;25.67;62.64
46430;BME280;32131;53.454;-6.180;2022-07-23T13:26:40;100903.31;;;25.80;62.25
46430;BME280;32131;53.454;-6.180;2022-07-23T13:29:10;100887.06;;;25.69;62.11
46430;BME280;32131;53.454;-6.180;2022-07-23T13:31:38;100893.44;;;25.65;62.01
46430;BME280;32131;53.454;-6.180;2022-07-23T13:34:06;100889.16;;;25.62;61.80
46430;BME280;32131;53.454;-6.180;2022-07-23T13:36:35;100877.06;;;25.56;61.83
46430;BME280;32131;53.454;-6.180;2022-07-23T13:39:06;100882.16;;;25.61;62.10
46430;BME280;32131;53.454;-6.180;2022-07-23T13:41:36;100888.47;;;25.57;61.71
46430;BME280;32131;53.454;-6.180;2022-07-23T13:44:04;100877.88;;;25.58;61.95
46430;BME280;32131;53.454;-6.180;2022-07-23T13:46:33;100885.00;;;25.56;61.82
46430;BME280;32131;53.454;-6.180;2022-07-23T13:49:01;100891.94;;;25.38;62.44
46430;BME280;32131;53.454;-6.180;2022-07-23T13:51:38;100887.84;;;24.90;63.10
46430;BME280;32131;53.454;-6.180;2022-07-23T13:54:12;100882.47;;;24.48;64.15
46430;BME280;32131;53.454;-6.180;2022-07-23T13:56:54;100877.06;;;24.07;65.49
46430;BME280;32131;53.454;-6.180;2022-07-23T13:59:23;100875.22;;;23.85;66.35
46430;BME280;32131;53.454;-6.180;2022-07-23T14:01:52;100887.59;;;23.83;66.64